Radar strel več informacij blitzortung!


Radar padavin  rain snow radar


Obiščite še:

Template documentation
and downloads

And another site



METAR v bližini

   
EBBR - Brussels International Airport, Belgium
Oddaljenost od postaje: Z 14 km
Posodobljeno: 19-08-2018 22:50
delno oblačno  
delno oblačno  
   Veter: ZSZ 14.8 km/h
Veter: ZSZ 14.8 km/h
Temperatura: 20°C
Točka rosišča: 16°C
Vlažnost: 78%
Zračni tlak: 1019 hPa
Oblaki: delno oblačno
Vidljivost: More than 10 km
Podrobnosti o oblakih: nekaj oblakov 823 m,
delno oblačno 1097.3 m
EBBR 192050Z 29008KT 9999 FEW027 SCT036 20/16 Q1019 NOSIG
EBBE - Beauvechain (Bevekom), Belgium
Oddaljenost od postaje: JJV 17 km
Posodobljeno: 19-08-2018 22:55
jasno  
jasno  
   Veter: ZJZ 9.3 km/h
Veter: ZJZ 9.3 km/h
Temperatura: 20°C
Točka rosišča: 15°C
Vlažnost: 73%
Zračni tlak: 1019 hPa
Oblaki: jasno
Vidljivost: More than 10 km
Podrobnosti o oblakih: jasno
EBBE 192055Z AUTO 25005KT 9999 NCD 20/15 Q1019 BLU
EBDT - Schaffen, Belgium
Oddaljenost od postaje: VSV 29 km
Posodobljeno: 19-08-2018 22:55
pretežno oblačno  
pretežno oblačno  
   Veter: ZJZ 5.6 km/h
Veter: ZJZ 5.6 km/h
Temperatura: 21°C
Točka rosišča: 16°C
Vlažnost: 73%
Zračni tlak: 1019 hPa
Oblaki: pretežno oblačno
Vidljivost: More than 10 km
Podrobnosti o oblakih: pretežno oblačno 1005.8 m
EBDT 192055Z AUTO 25003KT 9999 BKN033/// 21/16 Q1019 BLU
EBAW - Antwerp/Deurne, Belgium
Oddaljenost od postaje: SSZ 38 km
Posodobljeno: 19-08-2018 22:50
delno oblačno  
delno oblačno  
   Veter: Zahod 16.7 km/h
Veter: Zahod 16.7 km/h
Temperatura: 20°C
Točka rosišča: 16°C
Vlažnost: 78%
Zračni tlak: 1019 hPa
Oblaki: delno oblačno
Vidljivost: More than 10 km
Podrobnosti o oblakih: delno oblačno 853.4 m
EBAW 192050Z 26009KT 9999 SCT028 20/16 Q1019 NOSIG
EBCI - Charleroi/Gosselies, Belgium
Oddaljenost od postaje: JJZ 51 km
Posodobljeno: 19-08-2018 22:50
nekaj oblakov  
nekaj oblakov  
   Veter: Zahod 11.1 km/h
Veter: Zahod 11.1 km/h
Temperatura: 20°C
Točka rosišča: 15°C
Vlažnost: 73%
Zračni tlak: 1020 hPa
Oblaki: nekaj oblakov
Vidljivost: More than 10 km
Podrobnosti o oblakih: nekaj oblakov 1066.8 m
EBCI 192050Z 26006KT 9999 FEW035 20/15 Q1020 NOSIG
EBLG - Bierset/Liege, Belgium
Oddaljenost od postaje: VJV 60 km
Posodobljeno: 19-08-2018 22:50
nekaj oblakov  
nekaj oblakov  
   Veter: ZJZ 7.4 km/h
Veter: ZJZ 7.4 km/h
Temperatura: 19°C
Točka rosišča: 15°C
Vlažnost: 78%
Zračni tlak: 1020 hPa
Oblaki: nekaj oblakov
Vidljivost: More than 10 km
Podrobnosti o oblakih: nekaj oblakov 1097.3 m
EBLG 192050Z 25004KT 9999 FEW036 19/15 Q1020 NOSIG

Script developed by  Saratoga-weather.org Adapted for the template by  Weerstation Leuven

Oprema, ki se uporablja:

Vremenska postaja
AERCUS WH 3083

Vremenski program
Weather Display

AERCUS WH 3083

Weather Display